Time;durP1;ratioP1;P1;durP2;ratioP2;P2;SDS_P1;SDS_P2;PMS_P1;PMS_P2;Temp;Humidity;BMP_temperature;BMP_pressure;BME280_temperature;BME280_humidity;BME280_pressure;Samples;Min_cycle;Max_cycle;Signal;HPM_P1;HPM_P2
2021/03/20 00:01:24;;;;;;;1.23;0.90;;;23.10;42.60;;;;;;5043919;28;20831;-63
2021/03/20 00:03:50;;;;;;;1.27;0.80;;;23.10;42.60;;;;;;5053221;28;20036;-63
2021/03/20 00:06:20;;;;;;;2.78;0.90;;;23.10;42.60;;;;;;5039781;28;20048;-62
2021/03/20 00:08:48;;;;;;;1.85;0.90;;;23.10;42.60;;;;;;5045568;28;20033;-64
2021/03/20 00:11:15;;;;;;;1.23;0.83;;;23.10;42.50;;;;;;5042537;28;20044;-63
2021/03/20 00:13:45;;;;;;;1.70;0.90;;;23.10;42.60;;;;;;5045285;28;20291;-63
2021/03/20 00:16:11;;;;;;;1.40;0.90;;;23.00;42.50;;;;;;5056326;28;20029;-63
2021/03/20 00:18:37;;;;;;;1.02;0.70;;;23.00;42.50;;;;;;5042102;28;20040;-61
2021/03/20 00:21:03;;;;;;;2.05;0.90;;;23.00;42.50;;;;;;5044283;28;20036;-63
2021/03/20 00:23:29;;;;;;;1.70;0.98;;;23.00;42.50;;;;;;5045379;28;20017;-63
2021/03/20 00:25:55;;;;;;;1.48;0.82;;;23.00;42.60;;;;;;5043398;28;20555;-62
2021/03/20 00:28:24;;;;;;;1.33;0.80;;;23.00;43.10;;;;;;5045959;28;20029;-63
2021/03/20 00:30:56;;;;;;;0.93;0.70;;;23.00;42.50;;;;;;5050226;28;20029;-62
2021/03/20 00:33:22;;;;;;;1.20;0.70;;;23.00;42.60;;;;;;5039830;28;20033;-61
2021/03/20 00:35:49;;;;;;;0.93;0.80;;;23.00;42.60;;;;;;5044193;28;20036;-62
2021/03/20 00:38:15;;;;;;;1.23;0.77;;;23.00;42.60;;;;;;5045543;28;20028;-62
2021/03/20 00:40:41;;;;;;;1.65;0.85;;;22.90;42.50;;;;;;5043512;28;20029;-64
2021/03/20 00:43:08;;;;;;;1.00;0.77;;;23.00;42.60;;;;;;5046064;28;20568;-62
2021/03/20 00:45:33;;;;;;;1.10;0.73;;;22.90;42.50;;;;;;5044349;28;20060;-63
2021/03/20 00:48:27;;;;;;;1.88;0.90;;;22.90;42.50;;;;;;5046138;28;20106;-62
2021/03/20 00:50:54;;;;;;;1.05;0.70;;;22.90;42.50;;;;;;5038441;28;20053;-64
2021/03/20 00:53:20;;;;;;;1.80;0.70;;;22.90;42.50;;;;;;5044455;28;20021;-62
2021/03/20 00:55:46;;;;;;;1.55;0.77;;;22.90;42.50;;;;;;5043747;28;20104;-63
2021/03/20 00:58:29;;;;;;;1.52;0.70;;;22.90;42.50;;;;;;5046254;28;20054;-62
2021/03/20 01:01:14;;;;;;;1.20;0.70;;;22.80;42.50;;;;;;5036352;28;20053;-63
2021/03/20 01:03:39;;;;;;;0.70;0.60;;;22.80;42.50;;;;;;5041111;28;20021;-61
2021/03/20 01:06:12;;;;;;;1.30;0.80;;;22.80;42.50;;;;;;5045346;28;20392;-61
2021/03/20 01:08:38;;;;;;;1.45;0.70;;;22.80;42.50;;;;;;5025934;28;20412;-64
2021/03/20 01:11:04;;;;;;;1.38;1.10;;;22.80;42.50;;;;;;5037624;28;20025;-62
2021/03/20 01:13:31;;;;;;;1.38;0.80;;;22.80;42.50;;;;;;5042436;28;20040;-63
2021/03/20 01:15:57;;;;;;;1.05;0.70;;;22.80;42.50;;;;;;5043659;28;20029;-63
2021/03/20 01:18:23;;;;;;;1.35;0.77;;;22.80;42.60;;;;;;5046151;28;20032;-64
2021/03/20 01:20:48;;;;;;;1.45;0.80;;;22.80;42.50;;;;;;5043779;28;20079;-63
2021/03/20 01:23:14;;;;;;;1.30;0.70;;;22.80;42.50;;;;;;5040226;28;20372;-63
2021/03/20 01:25:40;;;;;;;1.52;0.70;;;22.80;42.50;;;;;;5047217;28;20041;-61
2021/03/20 01:28:07;;;;;;;0.85;0.70;;;22.80;42.50;;;;;;5047449;28;20029;-62
2021/03/20 01:30:37;;;;;;;1.23;0.68;;;22.70;42.50;;;;;;5041950;28;20033;-63
2021/03/20 01:33:03;;;;;;;1.08;0.70;;;22.70;42.50;;;;;;5048017;28;20124;-62
2021/03/20 01:35:29;;;;;;;0.80;0.60;;;22.70;42.40;;;;;;5045972;28;20060;-61
2021/03/20 01:37:55;;;;;;;1.00;0.70;;;22.70;42.50;;;;;;5049021;28;20407;-64
2021/03/20 01:40:31;;;;;;;1.00;0.70;;;22.70;43.10;;;;;;5047587;28;20162;-63
2021/03/20 01:42:57;;;;;;;2.25;0.70;;;22.70;42.50;;;;;;5046446;28;20037;-63
2021/03/20 01:45:29;;;;;;;0.80;0.70;;;22.70;42.50;;;;;;5044297;28;20052;-64
2021/03/20 01:48:10;;;;;;;0.88;0.70;;;22.70;42.50;;;;;;5039103;28;20527;-62
2021/03/20 01:50:41;;;;;;;0.90;0.60;;;22.70;42.50;;;;;;5053417;28;20033;-62
2021/03/20 01:53:42;;;;;;;0.85;0.63;;;22.70;42.50;;;;;;5047071;28;20060;-64
2021/03/20 01:56:15;;;;;;;1.08;0.68;;;22.70;42.50;;;;;;5031109;28;20041;-63
2021/03/20 01:58:42;;;;;;;0.68;0.65;;;22.70;42.50;;;;;;5046094;28;20028;-62
2021/03/20 02:01:12;;;;;;;1.35;0.70;;;22.60;42.50;;;;;;5037562;28;20033;-62
2021/03/20 02:03:38;;;;;;;1.08;0.75;;;22.60;42.50;;;;;;5039942;28;20092;-65
2021/03/20 02:06:06;;;;;;;0.95;0.65;;;22.60;42.50;;;;;;5051555;28;20041;-63
2021/03/20 02:08:32;;;;;;;2.08;0.73;;;22.60;42.50;;;;;;5048172;28;20036;-62
2021/03/20 02:11:06;;;;;;;1.10;0.70;;;22.60;42.50;;;;;;5045088;28;20030;-63
2021/03/20 02:13:42;;;;;;;1.35;0.77;;;22.60;42.50;;;;;;5046085;28;20136;-63
2021/03/20 02:16:29;;;;;;;0.60;0.60;;;22.60;42.40;;;;;;5043397;28;20025;-63
2021/03/20 02:19:16;;;;;;;1.00;0.70;;;22.60;42.50;;;;;;5047650;28;20383;-63
2021/03/20 02:21:48;;;;;;;1.38;0.70;;;22.60;42.40;;;;;;5047104;28;20030;-63
2021/03/20 02:24:35;;;;;;;1.13;0.70;;;22.60;42.50;;;;;;5046336;28;20110;-63
2021/03/20 02:27:20;;;;;;;1.08;0.70;;;22.60;42.50;;;;;;5035668;28;20031;-61
2021/03/20 02:30:04;;;;;;;0.85;0.65;;;22.60;42.50;;;;;;5045888;28;20111;-63
2021/03/20 02:33:13;;;;;;;1.15;0.80;;;22.60;42.50;;;;;;5045302;28;20056;-65
2021/03/20 02:36:05;;;;;;;0.88;0.60;;;22.50;42.50;;;;;;5015134;28;20033;-62
2021/03/20 02:38:49;;;;;;;0.98;0.63;;;22.50;42.40;;;;;;5048223;28;20047;-61
2021/03/20 02:41:50;;;;;;;0.60;0.60;;;22.50;42.40;;;;;;5044460;28;21933;-62
2021/03/20 02:44:22;;;;;;;0.80;0.60;;;22.50;42.50;;;;;;5046176;28;20359;-64
2021/03/20 02:46:59;;;;;;;0.70;0.60;;;22.50;42.40;;;;;;5045158;28;20115;-62
2021/03/20 02:49:24;;;;;;;0.88;0.63;;;22.50;42.50;;;;;;5047888;28;20066;-62
2021/03/20 02:52:02;;;;;;;1.08;0.65;;;22.50;42.50;;;;;;5046146;28;20316;-61
2021/03/20 02:54:27;;;;;;;0.98;0.70;;;22.40;42.40;;;;;;5034522;28;20029;-63
2021/03/20 02:57:16;;;;;;;1.25;0.68;;;22.50;42.50;;;;;;5042455;28;20040;-63
2021/03/20 02:59:47;;;;;;;1.75;0.80;;;22.50;42.50;;;;;;5045972;28;20067;-63
2021/03/20 03:02:16;;;;;;;0.70;0.60;;;22.40;42.50;;;;;;5044409;28;20472;-64
2021/03/20 03:05:08;;;;;;;0.80;0.70;;;22.40;42.50;;;;;;5046560;28;20028;-63
2021/03/20 03:07:50;;;;;;;0.73;0.70;;;22.40;42.40;;;;;;5042993;28;20033;-63
2021/03/20 03:10:26;;;;;;;0.80;0.70;;;22.40;43.00;;;;;;5045503;28;20077;-63
2021/03/20 03:13:09;;;;;;;0.73;0.60;;;22.40;42.50;;;;;;5047819;28;20048;-62
2021/03/20 03:15:41;;;;;;;0.77;0.55;;;22.40;42.50;;;;;;5044753;28;20032;-62
2021/03/20 03:18:29;;;;;;;0.50;0.50;;;22.40;42.60;;;;;;5045469;28;20029;-62
2021/03/20 03:20:59;;;;;;;1.23;0.70;;;22.40;42.50;;;;;;5045916;28;20100;-61
2021/03/20 03:23:29;;;;;;;0.80;0.60;;;22.40;42.50;;;;;;5046806;28;20025;-64
2021/03/20 03:26:02;;;;;;;1.23;0.90;;;22.40;42.50;;;;;;5042625;28;20040;-63
2021/03/20 03:28:29;;;;;;;0.60;0.60;;;22.40;42.50;;;;;;5044893;28;20538;-64
2021/03/20 03:30:58;;;;;;;0.95;0.65;;;22.40;42.50;;;;;;5043071;28;20037;-62
2021/03/20 03:33:41;;;;;;;0.57;0.57;;;22.40;42.50;;;;;;5032088;28;20633;-63
2021/03/20 03:36:12;;;;;;;1.30;0.70;;;22.40;42.60;;;;;;5044790;28;20029;-62
2021/03/20 03:38:53;;;;;;;0.85;0.65;;;22.40;42.60;;;;;;5034682;28;20510;-63
2021/03/20 03:41:35;;;;;;;0.50;0.50;;;22.40;42.50;;;;;;5045513;28;20036;-62
2021/03/20 03:44:07;;;;;;;0.98;0.60;;;22.40;42.60;;;;;;5045977;28;20123;-64
2021/03/20 03:46:35;;;;;;;0.93;0.73;;;22.40;42.60;;;;;;5045584;28;20021;-62
2021/03/20 03:49:05;;;;;;;0.80;0.57;;;22.40;42.50;;;;;;5044464;28;20021;-62
2021/03/20 03:51:30;;;;;;;;;;;22.40;42.60;;;;;;5056845;28;20057;-62
2021/03/20 03:53:58;;;;;;;0.57;0.50;;;22.40;42.60;;;;;;5045592;28;20291;-62
2021/03/20 03:56:36;;;;;;;0.93;0.60;;;22.30;42.50;;;;;;5044380;28;20087;-62
2021/03/20 03:59:20;;;;;;;0.77;0.60;;;22.30;42.50;;;;;;5061433;28;20040;-62
2021/03/20 04:02:15;;;;;;;0.63;0.50;;;22.30;42.50;;;;;;5042490;28;20041;-63
2021/03/20 04:04:59;;;;;;;1.10;0.60;;;22.30;42.50;;;;;;5046491;28;20033;-64
2021/03/20 04:07:43;;;;;;;0.60;0.50;;;22.30;42.50;;;;;;5041529;28;20468;-62
2021/03/20 04:10:18;;;;;;;0.57;0.57;;;22.30;42.50;;;;;;5033077;28;20058;-61
2021/03/20 04:12:58;;;;;;;0.93;0.70;;;22.30;42.50;;;;;;5032107;28;20086;-62
2021/03/20 04:15:45;;;;;;;0.52;0.52;;;22.30;42.50;;;;;;5041345;28;20125;-63
2021/03/20 04:18:26;;;;;;;1.20;0.70;;;22.30;42.50;;;;;;5027111;28;20034;-63
2021/03/20 04:21:07;;;;;;;0.55;0.55;;;22.30;42.50;;;;;;5044366;28;20078;-64
2021/03/20 04:23:37;;;;;;;0.63;0.60;;;22.30;42.50;;;;;;5045664;28;20037;-63
2021/03/20 04:26:16;;;;;;;0.55;0.52;;;22.30;42.60;;;;;;5037824;28;20127;-62
2021/03/20 04:28:56;;;;;;;0.55;0.50;;;22.30;42.50;;;;;;5029934;28;20440;-65
2021/03/20 04:31:39;;;;;;;0.68;0.57;;;22.30;42.60;;;;;;5032464;28;20380;-62
2021/03/20 04:34:26;;;;;;;1.00;0.60;;;22.30;42.60;;;;;;5043602;28;20129;-64
2021/03/20 04:37:16;;;;;;;0.90;0.60;;;22.30;42.60;;;;;;5039491;28;20100;-63
2021/03/20 04:39:45;;;;;;;0.63;0.63;;;22.30;42.60;;;;;;5065503;28;20043;-61
2021/03/20 04:42:14;;;;;;;0.77;0.60;;;22.30;42.60;;;;;;5057137;28;20057;-63
2021/03/20 04:44:40;;;;;;;0.55;0.50;;;22.30;42.60;;;;;;5043763;28;20032;-62
2021/03/20 04:47:12;;;;;;;0.70;0.60;;;22.30;42.60;;;;;;5043017;28;20110;-62
2021/03/20 04:49:49;;;;;;;0.50;0.50;;;22.30;42.60;;;;;;5045289;28;20086;-63
2021/03/20 04:52:28;;;;;;;0.68;0.55;;;22.30;42.60;;;;;;5044462;28;20033;-62
2021/03/20 04:54:54;;;;;;;0.90;0.60;;;22.30;42.60;;;;;;5041862;28;20029;-62
2021/03/20 04:57:35;;;;;;;0.60;0.60;;;22.30;42.60;;;;;;5038128;28;20037;-62
2021/03/20 05:00:46;;;;;;;0.82;0.60;;;22.30;42.60;;;;;;5053615;28;20029;-63
2021/03/20 05:03:23;;;;;;;0.50;0.50;;;22.30;42.60;;;;;;5014715;28;20039;-62
2021/03/20 05:05:53;;;;;;;0.73;0.52;;;22.30;42.50;;;;;;5038534;28;20391;-62
2021/03/20 05:08:34;;;;;;;;;;;22.30;42.50;;;;;;5045037;28;20063;-63
2021/03/20 05:11:12;;;;;;;0.57;0.50;;;22.30;42.50;;;;;;5029483;28;19909;-62
2021/03/20 05:14:06;;;;;;;0.70;0.60;;;22.30;42.80;;;;;;5049051;28;20029;-63
2021/03/20 05:16:40;;;;;;;0.50;0.50;;;22.30;42.50;;;;;;5045573;28;20047;-62
2021/03/20 05:19:07;;;;;;;0.65;0.60;;;22.30;42.60;;;;;;5048183;28;20025;-62
2021/03/20 05:21:36;;;;;;;0.52;0.50;;;22.30;42.50;;;;;;5046760;28;20496;-65
2021/03/20 05:24:03;;;;;;;0.75;0.57;;;22.30;42.60;;;;;;5047160;28;20041;-64
2021/03/20 05:26:30;;;;;;;0.65;0.60;;;22.30;42.60;;;;;;5046578;28;20666;-61
2021/03/20 05:28:56;;;;;;;0.70;0.50;;;22.30;42.60;;;;;;5050527;28;20433;-64
2021/03/20 05:31:22;;;;;;;0.77;0.60;;;22.30;42.60;;;;;;5062257;28;20151;-64
2021/03/20 05:33:50;;;;;;;1.00;0.70;;;22.30;42.60;;;;;;5046759;28;20064;-65
2021/03/20 05:36:16;;;;;;;0.77;0.60;;;22.30;42.60;;;;;;5046713;28;20048;-63
2021/03/20 05:38:43;;;;;;;1.02;0.70;;;22.30;42.60;;;;;;5047747;28;20159;-62
2021/03/20 05:41:39;;;;;;;0.63;0.50;;;22.30;42.60;;;;;;5042017;28;20033;-61
2021/03/20 05:44:42;;;;;;;0.50;0.50;;;22.30;42.60;;;;;;5036221;28;20025;-62
2021/03/20 05:47:25;;;;;;;0.93;0.60;;;22.30;42.50;;;;;;5045718;28;20115;-62
2021/03/20 05:49:59;;;;;;;0.93;0.60;;;22.30;42.60;;;;;;5047941;28;20450;-62
2021/03/20 05:52:53;;;;;;;0.68;0.55;;;22.30;42.50;;;;;;5059616;28;20096;-64
2021/03/20 05:55:28;;;;;;;1.08;0.63;;;22.30;42.50;;;;;;5040813;28;20057;-62
2021/03/20 05:58:06;;;;;;;0.60;0.50;;;22.30;42.50;;;;;;5046538;28;20031;-63
2021/03/20 06:00:49;;;;;;;0.77;0.50;;;22.30;42.50;;;;;;5044046;28;20037;-63
2021/03/20 06:03:44;;;;;;;1.00;0.50;;;22.30;43.10;;;;;;5047707;28;20174;-64
2021/03/20 06:07:00;;;;;;;0.80;0.60;;;22.30;42.50;;;;;;5046495;28;20037;-61
2021/03/20 06:10:01;;;;;;;0.45;0.45;;;22.30;42.50;;;;;;5040769;28;20111;-64
2021/03/20 06:12:45;;;;;;;0.98;0.60;;;22.30;42.50;;;;;;5038989;28;20490;-63
2021/03/20 06:15:19;;;;;;;0.75;0.60;;;22.30;42.50;;;;;;5045676;28;20484;-62
2021/03/20 06:18:15;;;;;;;0.88;0.68;;;22.30;42.50;;;;;;5045658;28;20032;-62
2021/03/20 06:20:47;;;;;;;0.90;0.50;;;22.30;42.60;;;;;;5043653;28;20036;-62
2021/03/20 06:23:40;;;;;;;0.55;0.50;;;22.30;42.60;;;;;;5041315;28;20024;-62
2021/03/20 06:26:20;;;;;;;0.70;0.60;;;22.30;42.50;;;;;;5056050;28;20128;-62
2021/03/20 06:28:51;;;;;;;1.40;0.68;;;22.30;42.50;;;;;;5045773;28;20601;-62
2021/03/20 06:31:28;;;;;;;1.15;0.63;;;22.30;42.60;;;;;;5040855;28;20037;-63
2021/03/20 06:34:16;;;;;;;1.33;0.60;;;22.30;42.60;;;;;;5042775;28;20368;-63
2021/03/20 06:36:58;;;;;;;0.70;0.57;;;22.30;42.60;;;;;;5044676;28;20032;-63
2021/03/20 06:39:41;;;;;;;0.85;0.68;;;22.20;42.50;;;;;;5041198;28;20511;-63
2021/03/20 06:42:20;;;;;;;0.60;0.57;;;22.30;42.60;;;;;;5040371;28;20081;-64
2021/03/20 06:44:49;;;;;;;0.50;0.50;;;22.30;42.50;;;;;;5038668;28;20025;-62
2021/03/20 06:47:21;;;;;;;0.70;0.60;;;22.30;42.50;;;;;;5035314;28;20043;-62
2021/03/20 06:50:09;;;;;;;1.23;0.63;;;22.30;42.50;;;;;;5041085;28;20291;-64
2021/03/20 06:52:37;;;;;;;0.82;0.60;;;22.30;42.50;;;;;;5047723;28;20132;-62
2021/03/20 06:55:17;;;;;;;0.68;0.60;;;22.30;42.40;;;;;;5046472;28;20388;-62
2021/03/20 06:57:43;;;;;;;1.58;1.00;;;22.30;42.30;;;;;;5044946;28;20040;-63
2021/03/20 07:00:31;;;;;;;0.93;0.63;;;22.30;42.20;;;;;;5040192;28;20025;-63
2021/03/20 07:03:08;;;;;;;0.75;0.70;;;22.20;42.10;;;;;;5044646;28;20029;-65
2021/03/20 07:05:50;;;;;;;1.00;0.70;;;22.20;42.00;;;;;;5043714;28;20476;-62
2021/03/20 07:08:38;;;;;;;2.15;1.50;;;22.20;38.50;;;;;;5046137;28;20052;-62
2021/03/20 07:11:32;;;;;;;2.63;1.53;;;22.00;28.80;;;;;;5038245;28;20036;-62
2021/03/20 07:14:07;;;;;;;11.82;2.03;;;21.50;26.20;;;;;;5043903;28;20032;-62
2021/03/20 07:16:54;;;;;;;2.38;1.60;;;21.10;25.70;;;;;;5043553;28;20123;-62
2021/03/20 07:19:19;;;;;;;3.72;1.55;;;20.70;24.90;;;;;;5045971;28;20060;-62
2021/03/20 07:22:06;;;;;;;3.00;1.60;;;20.30;25.40;;;;;;5045206;28;20052;-63
2021/03/20 07:24:36;;;;;;;3.33;1.90;;;20.00;25.10;;;;;;5043179;28;20017;-63
2021/03/20 07:27:13;;;;;;;2.38;1.60;;;19.70;25.60;;;;;;5045336;28;20032;-63
2021/03/20 07:29:56;;;;;;;2.88;1.48;;;19.50;26.80;;;;;;5078526;28;20025;-62
2021/03/20 07:32:24;;;;;;;1.80;1.13;;;19.50;28.10;;;;;;5046083;28;20237;-63
2021/03/20 07:34:54;;;;;;;1.83;1.10;;;19.70;29.00;;;;;;5046600;28;20029;-61
2021/03/20 07:37:19;;;;;;;1.27;0.90;;;19.90;29.40;;;;;;5046524;28;20021;-61
2021/03/20 07:39:51;;;;;;;1.50;0.85;;;20.00;29.90;;;;;;5045268;28;20431;-62
2021/03/20 07:42:40;;;;;;;0.90;0.75;;;20.20;30.40;;;;;;5044598;28;20095;-63
2021/03/20 07:45:17;;;;;;;1.23;0.85;;;20.30;31.00;;;;;;5040341;28;20043;-62
2021/03/20 07:47:53;;;;;;;2.83;0.80;;;20.40;31.50;;;;;;5046627;28;20234;-61
2021/03/20 07:50:18;;;;;;;0.93;0.70;;;20.50;31.90;;;;;;5046487;28;20036;-61
2021/03/20 07:53:00;;;;;;;0.65;0.65;;;20.60;32.40;;;;;;5061808;28;20056;-60
2021/03/20 07:55:26;;;;;;;1.17;0.70;;;20.70;32.70;;;;;;5044445;28;20025;-62
2021/03/20 07:57:54;;;;;;;1.00;0.60;;;20.70;32.90;;;;;;5036858;28;20110;-62
2021/03/20 08:00:29;;;;;;;0.90;0.70;;;20.80;33.20;;;;;;5044189;28;20029;-62
2021/03/20 08:03:06;;;;;;;0.95;0.60;;;20.80;33.60;;;;;;5058404;28;20121;-61
2021/03/20 08:05:37;;;;;;;1.10;0.70;;;20.90;33.80;;;;;;5041843;28;20037;-62
2021/03/20 08:08:14;;;;;;;1.27;0.73;;;20.90;34.30;;;;;;5046632;28;20560;-63
2021/03/20 08:10:45;;;;;;;0.98;0.68;;;20.90;34.50;;;;;;5043952;28;20108;-61
2021/03/20 08:13:43;;;;;;;1.20;0.70;;;20.90;34.40;;;;;;5036995;28;20029;-62
2021/03/20 08:16:09;;;;;;;1.55;0.60;;;20.90;34.50;;;;;;5044558;28;20060;-62
2021/03/20 08:18:40;;;;;;;0.65;0.52;;;20.90;34.70;;;;;;5046043;28;20052;-61
2021/03/20 08:21:14;;;;;;;0.93;0.70;;;20.90;35.00;;;;;;5046088;28;20673;-61
2021/03/20 08:24:17;;;;;;;0.98;0.70;;;21.00;35.30;;;;;;5045837;28;20052;-63
2021/03/20 08:26:46;;;;;;;0.80;0.60;;;21.00;35.40;;;;;;5033550;28;20079;-62
2021/03/20 08:29:35;;;;;;;0.90;0.70;;;21.00;35.60;;;;;;5039267;28;20029;-63
2021/03/20 08:32:29;;;;;;;1.05;0.52;;;21.00;35.70;;;;;;5044592;28;20041;-62
2021/03/20 08:34:58;;;;;;;1.08;0.60;;;21.00;35.90;;;;;;5043694;28;20795;-60
2021/03/20 08:37:43;;;;;;;1.17;0.70;;;21.00;36.10;;;;;;5050522;28;20411;-62
2021/03/20 08:40:38;;;;;;;0.82;0.60;;;21.00;36.20;;;;;;5041626;28;20056;-61
2021/03/20 08:43:04;;;;;;;0.73;0.50;;;21.00;36.40;;;;;;5049997;28;20036;-62
2021/03/20 08:45:44;;;;;;;0.98;0.60;;;21.00;36.40;;;;;;5048888;28;20407;-63
2021/03/20 08:48:16;;;;;;;0.68;0.60;;;21.00;36.60;;;;;;5047313;28;20779;-62
2021/03/20 08:51:01;;;;;;;1.02;0.60;;;21.10;36.90;;;;;;5046586;28;20029;-61
2021/03/20 08:53:44;;;;;;;0.75;0.52;;;21.00;36.90;;;;;;5056946;28;20063;-63
2021/03/20 08:56:28;;;;;;;0.85;0.50;;;21.10;37.10;;;;;;5041154;28;20031;-63
2021/03/20 08:59:10;;;;;;;1.02;0.70;;;21.10;37.10;;;;;;5049067;28;20043;-61
2021/03/20 09:01:40;;;;;;;0.52;0.52;;;21.10;37.20;;;;;;5046735;28;20483;-61
2021/03/20 09:04:28;;;;;;;0.95;0.50;;;21.10;37.30;;;;;;5045573;28;20641;-62
2021/03/20 09:06:57;;;;;;;0.55;0.55;;;21.10;37.40;;;;;;5028699;28;20065;-60
2021/03/20 09:09:45;;;;;;;1.00;0.60;;;21.10;37.50;;;;;;5036899;28;20048;-63
2021/03/20 09:12:26;;;;;;;1.20;0.70;;;21.10;37.60;;;;;;5046319;28;20082;-60
2021/03/20 09:14:58;;;;;;;0.88;0.60;;;21.20;37.70;;;;;;5049414;28;20096;-62
2021/03/20 09:17:34;;;;;;;0.73;0.45;;;21.20;37.70;;;;;;5048291;28;20040;-62
2021/03/20 09:20:20;;;;;;;0.95;0.70;;;21.20;37.80;;;;;;5046880;28;20088;-62
2021/03/20 09:22:47;;;;;;;0.80;0.50;;;21.20;37.80;;;;;;5063356;28;20123;-60
2021/03/20 09:25:34;;;;;;;0.95;0.60;;;21.20;38.00;;;;;;5048733;28;20091;-63
2021/03/20 09:28:03;;;;;;;0.65;0.60;;;21.20;38.00;;;;;;5039338;28;20559;-60
2021/03/20 09:30:46;;;;;;;1.67;0.60;;;21.20;38.10;;;;;;5045947;28;20048;-62
2021/03/20 09:33:27;;;;;;;1.30;0.70;;;21.20;38.10;;;;;;5048825;28;20109;-60
2021/03/20 09:35:57;;;;;;;1.17;0.60;;;21.20;38.20;;;;;;5038933;28;20026;-60
2021/03/20 09:38:35;;;;;;;2.42;0.60;;;21.20;38.30;;;;;;5042974;28;20029;-63
2021/03/20 09:41:14;;;;;;;0.65;0.50;;;21.30;38.40;;;;;;5043575;28;20056;-62
2021/03/20 09:43:45;;;;;;;1.10;0.70;;;21.30;38.40;;;;;;5046347;28;20043;-60
2021/03/20 09:46:40;;;;;;;0.88;0.50;;;21.30;38.50;;;;;;5044605;28;20033;-61
2021/03/20 09:49:08;;;;;;;1.08;0.70;;;21.30;38.50;;;;;;5047572;28;20033;-61
2021/03/20 09:51:57;;;;;;;0.95;0.60;;;21.30;38.60;;;;;;5040307;28;20091;-63
2021/03/20 09:54:29;;;;;;;1.17;0.68;;;21.30;38.90;;;;;;5042398;28;20349;-63
2021/03/20 09:59:44;;;;;;;1.38;0.63;;;21.30;38.70;;;;;;5046239;28;20032;-63
2021/03/20 10:02:10;;;;;;;0.68;0.50;;;21.30;38.70;;;;;;5045323;28;20036;-63
2021/03/20 10:04:54;;;;;;;0.85;0.50;;;21.30;38.80;;;;;;5044719;28;20040;-61
2021/03/20 10:07:20;;;;;;;1.27;0.60;;;21.40;38.80;;;;;;5039539;28;20476;-61
2021/03/20 10:09:53;;;;;;;1.25;0.70;;;21.40;38.90;;;;;;5040901;28;20040;-60
2021/03/20 10:12:53;;;;;;;0.73;0.60;;;21.40;38.90;;;;;;5041526;28;20112;-61
2021/03/20 10:15:34;;;;;;;2.80;0.77;;;21.40;38.90;;;;;;5049390;28;20021;-62
2021/03/20 10:18:06;;;;;;;0.70;0.60;;;21.40;38.90;;;;;;5050405;28;20052;-61
2021/03/20 10:20:45;;;;;;;1.42;0.75;;;21.40;39.00;;;;;;5055859;28;20021;-60
2021/03/20 10:23:29;;;;;;;;;;;21.40;39.00;;;;;;5041345;28;20033;-62
2021/03/20 10:25:57;;;;;;;1.00;0.60;;;21.40;39.00;;;;;;5042388;28;19923;-61
2021/03/20 10:28:29;;;;;;;1.15;0.50;;;21.50;39.10;;;;;;5042203;28;20044;-61
2021/03/20 10:31:06;;;;;;;0.95;0.60;;;21.50;39.10;;;;;;5041082;28;20575;-63
2021/03/20 10:33:32;;;;;;;1.05;0.65;;;21.50;39.10;;;;;;5042214;28;20539;-61
2021/03/20 10:36:16;;;;;;;1.10;0.60;;;21.50;39.10;;;;;;5042945;28;20039;-61
2021/03/20 10:38:47;;;;;;;0.45;0.45;;;21.50;39.30;;;;;;5060038;28;20023;-63
2021/03/20 10:41:24;;;;;;;1.80;0.60;;;21.50;39.30;;;;;;5055005;28;20101;-62
2021/03/20 10:44:41;;;;;;;1.10;0.57;;;21.50;39.40;;;;;;5041201;28;20106;-61
2021/03/20 10:47:22;;;;;;;1.15;0.70;;;21.50;39.40;;;;;;4994443;28;20045;-64
2021/03/20 10:50:06;;;;;;;2.15;1.00;;;21.50;39.40;;;;;;5041745;28;20472;-62
2021/03/20 10:52:37;;;;;;;2.65;0.80;;;21.50;39.50;;;;;;5042768;28;20503;-61
2021/03/20 10:55:18;;;;;;;1.10;0.65;;;21.60;39.60;;;;;;5033276;28;20492;-64
2021/03/20 10:57:45;;;;;;;0.70;0.70;;;21.60;39.60;;;;;;5040839;28;20029;-62
2021/03/20 11:00:39;;;;;;;1.77;0.90;;;21.60;39.60;;;;;;5042378;28;20553;-61
2021/03/20 11:03:10;;;;;;;2.42;0.90;;;21.60;39.60;;;;;;5037890;28;20025;-60
2021/03/20 11:05:37;;;;;;;1.75;0.80;;;21.60;39.70;;;;;;5033940;28;20411;-62
2021/03/20 11:08:11;;;;;;;1.52;0.80;;;21.60;40.00;;;;;;5043054;28;20143;-62
2021/03/20 11:10:40;;;;;;;1.90;0.85;;;21.60;39.70;;;;;;5044346;28;20094;-61
2021/03/20 11:13:27;;;;;;;1.92;1.00;;;21.60;39.80;;;;;;5038364;28;20032;-61
2021/03/20 11:16:04;;;;;;;1.65;0.80;;;21.60;39.70;;;;;;5024334;28;20497;-63
2021/03/20 11:18:35;;;;;;;2.47;0.90;;;21.70;39.80;;;;;;5039509;28;20099;-62
2021/03/20 11:21:01;;;;;;;2.83;0.90;;;21.70;39.80;;;;;;5030129;28;20469;-62
2021/03/20 11:23:33;;;;;;;1.70;0.88;;;21.70;39.90;;;;;;5042866;28;20094;-62
2021/03/20 11:26:22;;;;;;;1.58;1.00;;;21.70;39.90;;;;;;5039446;28;20036;-60
2021/03/20 11:28:49;;;;;;;2.67;1.10;;;21.70;39.90;;;;;;5035598;28;20130;-61
2021/03/20 11:31:16;;;;;;;2.25;1.02;;;21.70;39.90;;;;;;5040790;28;20546;-61
2021/03/20 11:33:43;;;;;;;2.88;1.02;;;21.70;39.90;;;;;;5041185;28;20029;-62
2021/03/20 11:36:17;;;;;;;1.50;0.90;;;21.70;39.90;;;;;;5034973;28;20114;-60
2021/03/20 11:38:44;;;;;;;1.60;0.80;;;21.70;39.90;;;;;;5042761;28;20159;-63
2021/03/20 11:41:09;;;;;;;2.80;1.10;;;21.70;39.90;;;;;;5046066;28;20749;-61
2021/03/20 11:43:41;;;;;;;1.88;1.00;;;21.70;39.90;;;;;;5047952;28;20432;-61
2021/03/20 11:46:10;;;;;;;1.98;1.10;;;21.80;40.00;;;;;;5039257;28;20017;-61
2021/03/20 11:48:38;;;;;;;2.45;1.02;;;21.80;40.00;;;;;;5040414;28;20100;-62
2021/03/20 11:51:19;;;;;;;1.50;1.00;;;21.80;40.10;;;;;;5031746;28;20103;-59
2021/03/20 11:53:48;;;;;;;3.60;0.90;;;21.80;40.20;;;;;;5040765;28;20132;-60
2021/03/20 11:56:26;;;;;;;2.78;1.30;;;21.80;40.20;;;;;;5036128;28;20359;-63
2021/03/20 11:58:57;;;;;;;2.25;1.08;;;21.80;40.20;;;;;;5039026;28;20106;-61
2021/03/20 12:01:32;;;;;;;3.00;1.00;;;21.90;40.30;;;;;;5036036;28;20114;-60
2021/03/20 12:04:22;;;;;;;3.88;1.00;;;21.90;40.30;;;;;;5053904;28;20287;-61
2021/03/20 12:06:49;;;;;;;1.92;0.90;;;22.00;40.40;;;;;;5040661;28;20106;-63
2021/03/20 12:09:35;;;;;;;2.60;1.05;;;22.00;40.30;;;;;;5040292;28;20534;-61
2021/03/20 12:12:02;;;;;;;1.65;0.90;;;22.00;40.30;;;;;;5038493;28;20130;-62
2021/03/20 12:14:30;;;;;;;2.08;1.08;;;22.00;40.30;;;;;;5039555;28;20032;-65
2021/03/20 12:17:19;;;;;;;2.20;1.10;;;22.10;40.40;;;;;;5039310;28;20032;-65
2021/03/20 12:20:06;;;;;;;1.85;1.10;;;22.10;40.50;;;;;;5036263;28;20367;-63
2021/03/20 12:22:50;;;;;;;2.08;1.10;;;22.10;40.50;;;;;;5038002;28;20283;-62
2021/03/20 12:25:19;;;;;;;2.38;1.10;;;22.10;40.50;;;;;;5039007;28;20233;-61
2021/03/20 12:27:46;;;;;;;2.87;1.10;;;22.10;40.40;;;;;;5038142;28;20115;-63
2021/03/20 12:30:31;;;;;;;2.22;1.02;;;22.20;40.40;;;;;;5042193;28;20505;-62
2021/03/20 12:33:15;;;;;;;2.55;1.23;;;22.20;40.40;;;;;;5041339;28;20727;-59
2021/03/20 12:35:47;;;;;;;3.95;1.10;;;22.20;40.30;;;;;;5052521;28;20101;-60
2021/03/20 12:38:19;;;;;;;2.50;1.10;;;22.20;40.30;;;;;;5039770;28;20255;-60
2021/03/20 12:41:04;;;;;;;2.53;1.10;;;22.30;40.30;;;;;;5032844;28;20047;-61
2021/03/20 12:43:38;;;;;;;2.83;1.27;;;22.30;40.20;;;;;;5032083;28;20031;-60
2021/03/20 12:46:06;;;;;;;2.25;1.10;;;22.30;40.20;;;;;;5033083;28;20281;-62
2021/03/20 12:48:36;;;;;;;1.10;0.80;;;22.30;40.20;;;;;;5033282;28;20025;-61
2021/03/20 12:51:16;;;;;;;2.58;1.25;;;22.30;40.10;;;;;;5034668;28;20112;-62
2021/03/20 12:53:42;;;;;;;1.88;1.20;;;22.40;40.20;;;;;;5032670;28;20141;-61
2021/03/20 12:56:07;;;;;;;2.08;1.15;;;22.40;40.20;;;;;;5037429;28;20032;-60
2021/03/20 12:58:33;;;;;;;2.70;1.40;;;22.40;40.20;;;;;;5037325;28;20072;-61
2021/03/20 13:00:59;;;;;;;2.58;1.27;;;22.40;40.10;;;;;;5035151;28;20037;-63
2021/03/20 13:03:25;;;;;;;2.47;1.10;;;22.40;40.10;;;;;;5040847;28;20260;-63
2021/03/20 13:05:50;;;;;;;2.47;1.10;;;22.50;40.10;;;;;;5031509;28;20037;-64
2021/03/20 13:08:16;;;;;;;2.70;1.10;;;22.50;40.10;;;;;;5040941;28;20543;-61
2021/03/20 13:10:42;;;;;;;2.95;1.13;;;22.50;40.00;;;;;;5040806;28;20033;-60
2021/03/20 13:13:08;;;;;;;1.70;1.02;;;22.60;40.60;;;;;;5033291;28;20025;-60
2021/03/20 13:15:34;;;;;;;2.88;1.42;;;22.60;40.00;;;;;;5035688;28;20095;-62
2021/03/20 13:18:00;;;;;;;2.65;1.20;;;22.60;40.00;;;;;;5029710;28;20464;-60
2021/03/20 13:20:26;;;;;;;2.53;1.33;;;22.60;40.00;;;;;;5035588;28;20055;-62
2021/03/20 13:22:53;;;;;;;2.47;1.25;;;22.60;39.90;;;;;;5036197;28;20033;-64
2021/03/20 13:25:31;;;;;;;2.00;1.30;;;22.60;39.90;;;;;;5059431;28;20059;-60
2021/03/20 13:27:57;;;;;;;3.35;1.10;;;22.70;39.90;;;;;;5036106;28;20032;-62
2021/03/20 13:30:28;;;;;;;2.15;1.10;;;22.70;39.90;;;;;;5042677;28;20040;-62
2021/03/20 13:32:56;;;;;;;2.25;1.13;;;22.70;39.90;;;;;;5043502;28;20054;-63
2021/03/20 13:35:24;;;;;;;1.90;1.08;;;22.70;39.80;;;;;;5041753;28;20414;-62